Weather at Campo di Volo "Pajaro Loco"

Public forecast

Using degrees Celsius for public forecast. Weather courtesy of forecast.io.

Closest aviation weather report (METAR) to Campo di Volo "Pajaro Loco"

Closest report is Rivolto Air Base, 12.6 nm (23.4 km) ENE. Retrieved 2020/09/29 12:55 UTC (11 minutes ago):

LIPI 291255Z 18003KT 9999 FEW050 19/08 Q1016 RMK FEW VIS MIN 9999 WIND THR06 20002KT WIND THR24 16002KT BLU

Closest aviation forecast (TAF) to Campo di Volo "Pajaro Loco"

Forecast is more than 12 hours old.

Closest forecast is Rivolto Air Base, 12.6 nm (23.4 km) ENE. Retrieved 2020/01/23 12:24 UTC (8 months ago):

TAF TAF LIPI 231100Z 2312/2324 06010KT CAVOK